sensor_id;sensor_type;location;lat;lon;timestamp;P1;durP1;ratioP1;P2;durP2;ratioP2
78614;SDS011;67937;52.488;20.952;2023-11-21T00:00:15;15.40;;;8.10;;
78614;SDS011;67937;52.488;20.952;2023-11-21T00:03:04;13.70;;;8.00;;
78614;SDS011;67937;52.488;20.952;2023-11-21T00:05:33;14.50;;;8.20;;
78614;SDS011;67937;52.488;20.952;2023-11-21T00:08:01;16.70;;;9.40;;
78614;SDS011;67937;52.488;20.952;2023-11-21T00:10:29;15.80;;;9.70;;
78614;SDS011;67937;52.488;20.952;2023-11-21T00:12:57;14.00;;;8.40;;
78614;SDS011;67937;52.488;20.952;2023-11-21T00:15:25;14.60;;;8.60;;
78614;SDS011;67937;52.488;20.952;2023-11-21T00:17:53;15.70;;;8.90;;
78614;SDS011;67937;52.488;20.952;2023-11-21T00:20:21;16.00;;;9.20;;
78614;SDS011;67937;52.488;20.952;2023-11-21T00:22:49;17.10;;;10.00;;
78614;SDS011;67937;52.488;20.952;2023-11-21T00:25:17;19.70;;;10.00;;
78614;SDS011;67937;52.488;20.952;2023-11-21T00:27:45;15.30;;;8.60;;
78614;SDS011;67937;52.488;20.952;2023-11-21T00:30:13;18.90;;;9.60;;
78614;SDS011;67937;52.488;20.952;2023-11-21T00:32:41;15.40;;;9.50;;
78614;SDS011;67937;52.488;20.952;2023-11-21T00:35:09;18.20;;;9.50;;
78614;SDS011;67937;52.488;20.952;2023-11-21T00:37:37;18.80;;;9.70;;
78614;SDS011;67937;52.488;20.952;2023-11-21T00:40:05;15.50;;;8.80;;
78614;SDS011;67937;52.488;20.952;2023-11-21T00:42:34;16.60;;;9.00;;
78614;SDS011;67937;52.488;20.952;2023-11-21T00:45:01;20.00;;;10.70;;
78614;SDS011;67937;52.488;20.952;2023-11-21T00:47:30;16.90;;;9.00;;
78614;SDS011;67937;52.488;20.952;2023-11-21T00:49:58;15.30;;;8.50;;
78614;SDS011;67937;52.488;20.952;2023-11-21T00:52:26;17.40;;;9.20;;
78614;SDS011;67937;52.488;20.952;2023-11-21T00:54:54;13.80;;;9.10;;
78614;SDS011;67937;52.488;20.952;2023-11-21T00:57:22;16.70;;;9.50;;
78614;SDS011;67937;52.488;20.952;2023-11-21T00:59:50;13.60;;;8.70;;
78614;SDS011;67937;52.488;20.952;2023-11-21T01:02:17;12.10;;;8.50;;
78614;SDS011;67937;52.488;20.952;2023-11-21T01:04:45;15.10;;;9.50;;
78614;SDS011;67937;52.488;20.952;2023-11-21T01:07:14;16.10;;;8.80;;
78614;SDS011;67937;52.488;20.952;2023-11-21T01:09:42;18.90;;;10.50;;
78614;SDS011;67937;52.488;20.952;2023-11-21T01:12:10;22.20;;;10.00;;
78614;SDS011;67937;52.488;20.952;2023-11-21T01:14:38;15.90;;;9.10;;
78614;SDS011;67937;52.488;20.952;2023-11-21T01:17:06;14.60;;;8.30;;
78614;SDS011;67937;52.488;20.952;2023-11-21T01:19:34;14.70;;;8.60;;
78614;SDS011;67937;52.488;20.952;2023-11-21T01:22:02;18.10;;;10.90;;
78614;SDS011;67937;52.488;20.952;2023-11-21T01:24:30;15.90;;;9.70;;
78614;SDS011;67937;52.488;20.952;2023-11-21T01:26:58;17.10;;;9.70;;
78614;SDS011;67937;52.488;20.952;2023-11-21T01:29:26;16.30;;;9.30;;
78614;SDS011;67937;52.488;20.952;2023-11-21T01:31:54;14.50;;;9.30;;
78614;SDS011;67937;52.488;20.952;2023-11-21T01:34:23;17.20;;;7.90;;
78614;SDS011;67937;52.488;20.952;2023-11-21T01:36:51;13.50;;;7.70;;
78614;SDS011;67937;52.488;20.952;2023-11-21T01:39:19;18.10;;;9.10;;
78614;SDS011;67937;52.488;20.952;2023-11-21T01:41:50;21.30;;;9.70;;
78614;SDS011;67937;52.488;20.952;2023-11-21T01:44:18;20.50;;;9.50;;
78614;SDS011;67937;52.488;20.952;2023-11-21T01:46:47;18.60;;;10.80;;
78614;SDS011;67937;52.488;20.952;2023-11-21T01:49:15;15.70;;;9.10;;
78614;SDS011;67937;52.488;20.952;2023-11-21T01:51:44;15.10;;;9.80;;
78614;SDS011;67937;52.488;20.952;2023-11-21T01:54:15;19.30;;;9.20;;
78614;SDS011;67937;52.488;20.952;2023-11-21T01:56:45;16.40;;;8.90;;
78614;SDS011;67937;52.488;20.952;2023-11-21T01:59:15;15.20;;;8.60;;
78614;SDS011;67937;52.488;20.952;2023-11-21T02:01:48;16.10;;;8.60;;
78614;SDS011;67937;52.488;20.952;2023-11-21T02:04:17;15.60;;;8.90;;
78614;SDS011;67937;52.488;20.952;2023-11-21T02:06:45;17.80;;;9.40;;
78614;SDS011;67937;52.488;20.952;2023-11-21T02:09:13;14.10;;;8.30;;
78614;SDS011;67937;52.488;20.952;2023-11-21T02:11:41;15.90;;;8.90;;
78614;SDS011;67937;52.488;20.952;2023-11-21T02:14:10;13.70;;;8.00;;
78614;SDS011;67937;52.488;20.952;2023-11-21T02:16:39;17.50;;;8.70;;
78614;SDS011;67937;52.488;20.952;2023-11-21T02:19:07;16.00;;;8.90;;
78614;SDS011;67937;52.488;20.952;2023-11-21T02:21:41;15.30;;;9.00;;
78614;SDS011;67937;52.488;20.952;2023-11-21T02:24:11;12.10;;;7.80;;
78614;SDS011;67937;52.488;20.952;2023-11-21T02:26:39;17.70;;;8.50;;
78614;SDS011;67937;52.488;20.952;2023-11-21T02:29:07;14.20;;;7.70;;
78614;SDS011;67937;52.488;20.952;2023-11-21T02:31:38;16.20;;;8.60;;
78614;SDS011;67937;52.488;20.952;2023-11-21T02:34:14;13.80;;;8.30;;
78614;SDS011;67937;52.488;20.952;2023-11-21T02:36:43;14.60;;;8.00;;
78614;SDS011;67937;52.488;20.952;2023-11-21T02:39:12;11.60;;;6.90;;
78614;SDS011;67937;52.488;20.952;2023-11-21T02:41:39;14.20;;;7.40;;
78614;SDS011;67937;52.488;20.952;2023-11-21T02:44:07;13.80;;;8.00;;
78614;SDS011;67937;52.488;20.952;2023-11-21T02:46:36;10.20;;;7.70;;
78614;SDS011;67937;52.488;20.952;2023-11-21T02:49:05;16.00;;;7.30;;
78614;SDS011;67937;52.488;20.952;2023-11-21T02:51:33;12.70;;;7.30;;
78614;SDS011;67937;52.488;20.952;2023-11-21T02:54:01;11.20;;;7.40;;
78614;SDS011;67937;52.488;20.952;2023-11-21T02:56:32;14.60;;;8.30;;
78614;SDS011;67937;52.488;20.952;2023-11-21T02:59:00;10.70;;;6.80;;
78614;SDS011;67937;52.488;20.952;2023-11-21T03:01:28;10.90;;;7.30;;
78614;SDS011;67937;52.488;20.952;2023-11-21T03:03:56;10.40;;;7.50;;
78614;SDS011;67937;52.488;20.952;2023-11-21T03:06:24;11.20;;;7.30;;
78614;SDS011;67937;52.488;20.952;2023-11-21T03:08:52;10.50;;;6.20;;
78614;SDS011;67937;52.488;20.952;2023-11-21T03:11:20;10.40;;;6.20;;
78614;SDS011;67937;52.488;20.952;2023-11-21T03:13:48;10.50;;;6.80;;
78614;SDS011;67937;52.488;20.952;2023-11-21T03:16:16;13.10;;;6.70;;
78614;SDS011;67937;52.488;20.952;2023-11-21T03:18:45;11.60;;;7.30;;
78614;SDS011;67937;52.488;20.952;2023-11-21T03:21:13;11.60;;;7.20;;
78614;SDS011;67937;52.488;20.952;2023-11-21T03:23:41;11.50;;;6.70;;
78614;SDS011;67937;52.488;20.952;2023-11-21T03:26:11;12.80;;;6.80;;
78614;SDS011;67937;52.488;20.952;2023-11-21T03:28:40;13.70;;;7.00;;
78614;SDS011;67937;52.488;20.952;2023-11-21T03:31:08;10.00;;;6.70;;
78614;SDS011;67937;52.488;20.952;2023-11-21T03:33:36;12.00;;;8.00;;
78614;SDS011;67937;52.488;20.952;2023-11-21T03:36:04;11.30;;;6.70;;
78614;SDS011;67937;52.488;20.952;2023-11-21T03:38:34;12.80;;;6.10;;
78614;SDS011;67937;52.488;20.952;2023-11-21T03:41:02;8.20;;;5.60;;
78614;SDS011;67937;52.488;20.952;2023-11-21T03:43:30;7.70;;;5.50;;
78614;SDS011;67937;52.488;20.952;2023-11-21T03:45:58;8.40;;;5.70;;
78614;SDS011;67937;52.488;20.952;2023-11-21T03:48:25;10.30;;;5.90;;
78614;SDS011;67937;52.488;20.952;2023-11-21T03:50:53;8.70;;;5.60;;
78614;SDS011;67937;52.488;20.952;2023-11-21T03:53:21;8.80;;;5.50;;
78614;SDS011;67937;52.488;20.952;2023-11-21T03:55:49;8.40;;;5.30;;
78614;SDS011;67937;52.488;20.952;2023-11-21T03:58:17;9.00;;;6.40;;
78614;SDS011;67937;52.488;20.952;2023-11-21T04:00:46;9.10;;;6.00;;
78614;SDS011;67937;52.488;20.952;2023-11-21T04:03:15;8.60;;;6.00;;
78614;SDS011;67937;52.488;20.952;2023-11-21T04:05:43;9.30;;;5.70;;
78614;SDS011;67937;52.488;20.952;2023-11-21T04:08:12;12.30;;;6.80;;
78614;SDS011;67937;52.488;20.952;2023-11-21T04:10:40;8.70;;;5.70;;
78614;SDS011;67937;52.488;20.952;2023-11-21T04:13:08;10.40;;;6.10;;
78614;SDS011;67937;52.488;20.952;2023-11-21T04:15:36;9.80;;;5.30;;
78614;SDS011;67937;52.488;20.952;2023-11-21T04:18:04;8.10;;;5.30;;
78614;SDS011;67937;52.488;20.952;2023-11-21T04:20:32;8.00;;;5.60;;
78614;SDS011;67937;52.488;20.952;2023-11-21T04:23:00;10.20;;;5.90;;
78614;SDS011;67937;52.488;20.952;2023-11-21T04:25:29;8.70;;;5.50;;
78614;SDS011;67937;52.488;20.952;2023-11-21T04:27:57;8.80;;;5.10;;
78614;SDS011;67937;52.488;20.952;2023-11-21T04:30:25;10.10;;;5.40;;
78614;SDS011;67937;52.488;20.952;2023-11-21T04:32:53;8.60;;;6.10;;
78614;SDS011;67937;52.488;20.952;2023-11-21T04:35:21;9.00;;;5.90;;
78614;SDS011;67937;52.488;20.952;2023-11-21T04:37:49;10.30;;;6.50;;
78614;SDS011;67937;52.488;20.952;2023-11-21T04:40:17;9.50;;;6.20;;
78614;SDS011;67937;52.488;20.952;2023-11-21T04:42:47;9.10;;;5.20;;
78614;SDS011;67937;52.488;20.952;2023-11-21T04:45:15;8.90;;;6.10;;
78614;SDS011;67937;52.488;20.952;2023-11-21T04:47:43;9.60;;;5.40;;
78614;SDS011;67937;52.488;20.952;2023-11-21T04:50:11;9.20;;;5.30;;
78614;SDS011;67937;52.488;20.952;2023-11-21T04:52:39;9.80;;;6.00;;
78614;SDS011;67937;52.488;20.952;2023-11-21T04:55:07;9.30;;;5.50;;
78614;SDS011;67937;52.488;20.952;2023-11-21T04:57:36;8.30;;;6.00;;
78614;SDS011;67937;52.488;20.952;2023-11-21T05:00:04;11.20;;;5.20;;
78614;SDS011;67937;52.488;20.952;2023-11-21T05:02:33;9.40;;;5.80;;
78614;SDS011;67937;52.488;20.952;2023-11-21T05:05:01;8.90;;;5.80;;
78614;SDS011;67937;52.488;20.952;2023-11-21T05:07:32;9.10;;;5.80;;
78614;SDS011;67937;52.488;20.952;2023-11-21T05:10:01;9.90;;;5.60;;
78614;SDS011;67937;52.488;20.952;2023-11-21T05:12:31;11.40;;;5.90;;
78614;SDS011;67937;52.488;20.952;2023-11-21T05:15:01;9.20;;;6.40;;
78614;SDS011;67937;52.488;20.952;2023-11-21T05:17:33;8.70;;;5.30;;
78614;SDS011;67937;52.488;20.952;2023-11-21T05:20:02;9.60;;;5.60;;
78614;SDS011;67937;52.488;20.952;2023-11-21T05:22:34;9.60;;;5.80;;
78614;SDS011;67937;52.488;20.952;2023-11-21T05:25:03;10.40;;;6.20;;
78614;SDS011;67937;52.488;20.952;2023-11-21T05:27:31;13.90;;;6.70;;
78614;SDS011;67937;52.488;20.952;2023-11-21T05:30:01;9.50;;;6.10;;
78614;SDS011;67937;52.488;20.952;2023-11-21T05:32:31;8.40;;;5.40;;
78614;SDS011;67937;52.488;20.952;2023-11-21T05:35:02;11.10;;;6.20;;
78614;SDS011;67937;52.488;20.952;2023-11-21T05:37:30;10.10;;;6.10;;
78614;SDS011;67937;52.488;20.952;2023-11-21T05:39:58;8.60;;;5.70;;
78614;SDS011;67937;52.488;20.952;2023-11-21T05:42:32;11.10;;;6.10;;
78614;SDS011;67937;52.488;20.952;2023-11-21T05:45:01;9.80;;;5.70;;
78614;SDS011;67937;52.488;20.952;2023-11-21T05:47:36;11.30;;;5.50;;
78614;SDS011;67937;52.488;20.952;2023-11-21T05:50:10;11.10;;;5.50;;
78614;SDS011;67937;52.488;20.952;2023-11-21T05:52:41;10.50;;;5.60;;
78614;SDS011;67937;52.488;20.952;2023-11-21T05:55:10;9.20;;;6.10;;
78614;SDS011;67937;52.488;20.952;2023-11-21T05:57:39;12.60;;;7.00;;
78614;SDS011;67937;52.488;20.952;2023-11-21T06:00:09;14.00;;;7.00;;
78614;SDS011;67937;52.488;20.952;2023-11-21T06:02:42;9.40;;;6.80;;
78614;SDS011;67937;52.488;20.952;2023-11-21T06:05:10;13.40;;;7.00;;
78614;SDS011;67937;52.488;20.952;2023-11-21T06:07:38;13.80;;;7.70;;
78614;SDS011;67937;52.488;20.952;2023-11-21T06:10:07;13.60;;;7.30;;
78614;SDS011;67937;52.488;20.952;2023-11-21T06:12:37;12.50;;;7.20;;
78614;SDS011;67937;52.488;20.952;2023-11-21T06:15:06;12.70;;;6.50;;
78614;SDS011;67937;52.488;20.952;2023-11-21T06:17:35;13.90;;;8.40;;
78614;SDS011;67937;52.488;20.952;2023-11-21T06:20:04;12.70;;;7.70;;
78614;SDS011;67937;52.488;20.952;2023-11-21T06:22:38;12.10;;;6.70;;
78614;SDS011;67937;52.488;20.952;2023-11-21T06:25:07;11.60;;;6.90;;
78614;SDS011;67937;52.488;20.952;2023-11-21T06:27:37;14.60;;;7.80;;
78614;SDS011;67937;52.488;20.952;2023-11-21T06:30:07;13.50;;;6.90;;
78614;SDS011;67937;52.488;20.952;2023-11-21T06:32:36;12.90;;;6.70;;
78614;SDS011;67937;52.488;20.952;2023-11-21T06:35:04;12.60;;;7.60;;
78614;SDS011;67937;52.488;20.952;2023-11-21T06:37:33;16.40;;;8.20;;
78614;SDS011;67937;52.488;20.952;2023-11-21T06:40:01;12.50;;;8.20;;
78614;SDS011;67937;52.488;20.952;2023-11-21T06:42:31;9.70;;;6.70;;
78614;SDS011;67937;52.488;20.952;2023-11-21T06:45:00;12.10;;;7.30;;
78614;SDS011;67937;52.488;20.952;2023-11-21T06:47:30;13.60;;;8.00;;
78614;SDS011;67937;52.488;20.952;2023-11-21T06:49:58;13.10;;;6.80;;
78614;SDS011;67937;52.488;20.952;2023-11-21T06:52:27;15.00;;;7.60;;
78614;SDS011;67937;52.488;20.952;2023-11-21T06:54:55;14.40;;;7.80;;
78614;SDS011;67937;52.488;20.952;2023-11-21T06:57:23;12.50;;;7.60;;
78614;SDS011;67937;52.488;20.952;2023-11-21T06:59:51;11.70;;;7.70;;
78614;SDS011;67937;52.488;20.952;2023-11-21T07:02:19;11.80;;;6.50;;
78614;SDS011;67937;52.488;20.952;2023-11-21T07:04:47;12.40;;;7.60;;
78614;SDS011;67937;52.488;20.952;2023-11-21T07:07:15;19.40;;;9.10;;
78614;SDS011;67937;52.488;20.952;2023-11-21T07:09:43;12.70;;;6.90;;
78614;SDS011;67937;52.488;20.952;2023-11-21T07:12:11;14.60;;;7.60;;
78614;SDS011;67937;52.488;20.952;2023-11-21T07:14:40;14.70;;;7.30;;
78614;SDS011;67937;52.488;20.952;2023-11-21T07:17:11;15.60;;;8.20;;
78614;SDS011;67937;52.488;20.952;2023-11-21T07:19:39;13.40;;;7.60;;
78614;SDS011;67937;52.488;20.952;2023-11-21T07:22:07;12.80;;;7.70;;
78614;SDS011;67937;52.488;20.952;2023-11-21T07:24:36;11.90;;;7.70;;
78614;SDS011;67937;52.488;20.952;2023-11-21T07:27:04;13.40;;;7.00;;
78614;SDS011;67937;52.488;20.952;2023-11-21T07:29:32;12.90;;;7.80;;
78614;SDS011;67937;52.488;20.952;2023-11-21T07:32:00;12.50;;;6.60;;
78614;SDS011;67937;52.488;20.952;2023-11-21T07:34:28;12.80;;;8.00;;
78614;SDS011;67937;52.488;20.952;2023-11-21T07:36:56;11.30;;;7.40;;
78614;SDS011;67937;52.488;20.952;2023-11-21T07:39:24;14.70;;;7.80;;
78614;SDS011;67937;52.488;20.952;2023-11-21T07:41:52;11.30;;;7.50;;
78614;SDS011;67937;52.488;20.952;2023-11-21T07:44:20;12.30;;;8.10;;
78614;SDS011;67937;52.488;20.952;2023-11-21T07:46:48;11.50;;;7.30;;
78614;SDS011;67937;52.488;20.952;2023-11-21T07:49:17;14.00;;;8.30;;
78614;SDS011;67937;52.488;20.952;2023-11-21T07:51:47;10.90;;;6.30;;
78614;SDS011;67937;52.488;20.952;2023-11-21T07:54:15;12.70;;;6.80;;
78614;SDS011;67937;52.488;20.952;2023-11-21T07:56:43;11.30;;;6.60;;
78614;SDS011;67937;52.488;20.952;2023-11-21T07:59:11;12.30;;;6.70;;
78614;SDS011;67937;52.488;20.952;2023-11-21T08:01:40;11.20;;;7.50;;
78614;SDS011;67937;52.488;20.952;2023-11-21T08:04:09;12.10;;;7.60;;
78614;SDS011;67937;52.488;20.952;2023-11-21T08:06:37;11.80;;;6.90;;
78614;SDS011;67937;52.488;20.952;2023-11-21T08:09:05;13.00;;;7.40;;
78614;SDS011;67937;52.488;20.952;2023-11-21T08:11:34;13.60;;;7.40;;
78614;SDS011;67937;52.488;20.952;2023-11-21T08:14:05;16.30;;;8.40;;
78614;SDS011;67937;52.488;20.952;2023-11-21T08:16:33;10.20;;;6.00;;
78614;SDS011;67937;52.488;20.952;2023-11-21T08:19:01;10.90;;;6.50;;
78614;SDS011;67937;52.488;20.952;2023-11-21T08:21:29;12.70;;;6.80;;
78614;SDS011;67937;52.488;20.952;2023-11-21T08:23:57;10.90;;;6.50;;
78614;SDS011;67937;52.488;20.952;2023-11-21T08:26:26;11.50;;;6.70;;
78614;SDS011;67937;52.488;20.952;2023-11-21T08:28:54;13.50;;;7.20;;
78614;SDS011;67937;52.488;20.952;2023-11-21T08:31:23;13.30;;;7.70;;
78614;SDS011;67937;52.488;20.952;2023-11-21T08:33:52;10.80;;;6.90;;
78614;SDS011;67937;52.488;20.952;2023-11-21T08:36:21;13.40;;;6.80;;
78614;SDS011;67937;52.488;20.952;2023-11-21T08:38:50;10.00;;;5.70;;
78614;SDS011;67937;52.488;20.952;2023-11-21T08:41:19;12.70;;;7.50;;
78614;SDS011;67937;52.488;20.952;2023-11-21T08:43:49;10.90;;;6.80;;
78614;SDS011;67937;52.488;20.952;2023-11-21T08:46:17;13.20;;;7.30;;
78614;SDS011;67937;52.488;20.952;2023-11-21T08:48:45;11.60;;;6.70;;
78614;SDS011;67937;52.488;20.952;2023-11-21T08:51:13;12.80;;;6.90;;
78614;SDS011;67937;52.488;20.952;2023-11-21T08:53:42;10.20;;;6.60;;
78614;SDS011;67937;52.488;20.952;2023-11-21T08:56:12;13.80;;;7.30;;
78614;SDS011;67937;52.488;20.952;2023-11-21T08:58:41;11.40;;;5.90;;
78614;SDS011;67937;52.488;20.952;2023-11-21T09:01:09;12.30;;;6.70;;
78614;SDS011;67937;52.488;20.952;2023-11-21T09:03:38;13.10;;;7.40;;
78614;SDS011;67937;52.488;20.952;2023-11-21T09:06:06;14.00;;;6.60;;
78614;SDS011;67937;52.488;20.952;2023-11-21T09:08:36;11.30;;;6.30;;
78614;SDS011;67937;52.488;20.952;2023-11-21T09:11:04;12.40;;;7.20;;
78614;SDS011;67937;52.488;20.952;2023-11-21T09:13:32;11.20;;;5.90;;
78614;SDS011;67937;52.488;20.952;2023-11-21T09:16:00;11.90;;;6.50;;
78614;SDS011;67937;52.488;20.952;2023-11-21T09:18:28;11.60;;;7.60;;
78614;SDS011;67937;52.488;20.952;2023-11-21T09:20:56;13.20;;;7.50;;
78614;SDS011;67937;52.488;20.952;2023-11-21T09:23:24;12.70;;;7.20;;
78614;SDS011;67937;52.488;20.952;2023-11-21T09:25:52;12.30;;;7.40;;
78614;SDS011;67937;52.488;20.952;2023-11-21T09:28:23;11.70;;;6.00;;
78614;SDS011;67937;52.488;20.952;2023-11-21T09:30:51;14.60;;;7.50;;
78614;SDS011;67937;52.488;20.952;2023-11-21T09:33:19;12.30;;;7.00;;
78614;SDS011;67937;52.488;20.952;2023-11-21T09:35:48;10.50;;;6.90;;
78614;SDS011;67937;52.488;20.952;2023-11-21T09:38:17;10.70;;;7.30;;
78614;SDS011;67937;52.488;20.952;2023-11-21T09:40:45;10.70;;;6.40;;
78614;SDS011;67937;52.488;20.952;2023-11-21T09:43:16;11.70;;;6.90;;
78614;SDS011;67937;52.488;20.952;2023-11-21T09:45:47;12.80;;;7.10;;
78614;SDS011;67937;52.488;20.952;2023-11-21T09:48:17;15.40;;;7.70;;
78614;SDS011;67937;52.488;20.952;2023-11-21T09:50:48;11.10;;;7.40;;
78614;SDS011;67937;52.488;20.952;2023-11-21T09:53:21;11.10;;;6.80;;
78614;SDS011;67937;52.488;20.952;2023-11-21T09:55:51;11.60;;;7.00;;
78614;SDS011;67937;52.488;20.952;2023-11-21T09:58:20;11.20;;;6.70;;
78614;SDS011;67937;52.488;20.952;2023-11-21T10:00:50;11.30;;;7.10;;
78614;SDS011;67937;52.488;20.952;2023-11-21T10:03:20;12.50;;;7.10;;
78614;SDS011;67937;52.488;20.952;2023-11-21T10:05:50;14.90;;;8.10;;
78614;SDS011;67937;52.488;20.952;2023-11-21T10:08:19;15.40;;;8.20;;
78614;SDS011;67937;52.488;20.952;2023-11-21T10:10:51;13.20;;;6.80;;
78614;SDS011;67937;52.488;20.952;2023-11-21T10:13:21;10.70;;;5.80;;
78614;SDS011;67937;52.488;20.952;2023-11-21T10:15:50;10.50;;;6.50;;
78614;SDS011;67937;52.488;20.952;2023-11-21T10:18:19;13.80;;;8.00;;
78614;SDS011;67937;52.488;20.952;2023-11-21T10:20:48;10.70;;;6.40;;
78614;SDS011;67937;52.488;20.952;2023-11-21T10:23:19;12.70;;;7.60;;
78614;SDS011;67937;52.488;20.952;2023-11-21T10:25:48;16.50;;;8.50;;
78614;SDS011;67937;52.488;20.952;2023-11-21T10:28:18;9.70;;;6.50;;
78614;SDS011;67937;52.488;20.952;2023-11-21T10:30:47;12.50;;;7.20;;
78614;SDS011;67937;52.488;20.952;2023-11-21T10:33:15;13.30;;;8.20;;
78614;SDS011;67937;52.488;20.952;2023-11-21T10:35:43;12.20;;;7.10;;
78614;SDS011;67937;52.488;20.952;2023-11-21T10:38:17;15.30;;;7.10;;
78614;SDS011;67937;52.488;20.952;2023-11-21T10:40:47;12.90;;;7.20;;
78614;SDS011;67937;52.488;20.952;2023-11-21T10:43:15;13.30;;;8.20;;
78614;SDS011;67937;52.488;20.952;2023-11-21T10:45:44;11.10;;;6.40;;
78614;SDS011;67937;52.488;20.952;2023-11-21T10:48:13;14.20;;;8.00;;
78614;SDS011;67937;52.488;20.952;2023-11-21T10:50:43;12.00;;;6.60;;
78614;SDS011;67937;52.488;20.952;2023-11-21T10:53:13;12.70;;;7.80;;
78614;SDS011;67937;52.488;20.952;2023-11-21T10:55:41;12.10;;;7.20;;
78614;SDS011;67937;52.488;20.952;2023-11-21T10:58:10;11.50;;;6.50;;
78614;SDS011;67937;52.488;20.952;2023-11-21T11:00:41;14.10;;;8.20;;
78614;SDS011;67937;52.488;20.952;2023-11-21T11:03:11;11.50;;;6.70;;
78614;SDS011;67937;52.488;20.952;2023-11-21T11:05:41;14.20;;;8.30;;
78614;SDS011;67937;52.488;20.952;2023-11-21T11:08:17;13.80;;;7.30;;
78614;SDS011;67937;52.488;20.952;2023-11-21T11:10:52;14.30;;;8.30;;
78614;SDS011;67937;52.488;20.952;2023-11-21T11:13:20;12.30;;;6.60;;
78614;SDS011;67937;52.488;20.952;2023-11-21T11:15:49;10.70;;;6.70;;
78614;SDS011;67937;52.488;20.952;2023-11-21T11:18:17;14.30;;;7.50;;
78614;SDS011;67937;52.488;20.952;2023-11-21T11:20:47;14.80;;;6.80;;
78614;SDS011;67937;52.488;20.952;2023-11-21T11:23:32;11.70;;;6.80;;
78614;SDS011;67937;52.488;20.952;2023-11-21T11:26:51;13.20;;;6.80;;
78614;SDS011;67937;52.488;20.952;2023-11-21T11:34:39;12.40;;;7.10;;
78614;SDS011;67937;52.488;20.952;2023-11-21T11:37:11;12.40;;;7.40;;
78614;SDS011;67937;52.488;20.952;2023-11-21T11:39:42;13.30;;;7.20;;
78614;SDS011;67937;52.488;20.952;2023-11-21T11:42:15;11.40;;;6.50;;
78614;SDS011;67937;52.488;20.952;2023-11-21T11:44:46;12.80;;;7.70;;
78614;SDS011;67937;52.488;20.952;2023-11-21T11:47:21;12.70;;;7.00;;
78614;SDS011;67937;52.488;20.952;2023-11-21T11:55:08;13.50;;;7.50;;
78614;SDS011;67937;52.488;20.952;2023-11-21T11:57:38;14.70;;;7.50;;
78614;SDS011;67937;52.488;20.952;2023-11-21T12:02:45;12.40;;;7.20;;
78614;SDS011;67937;52.488;20.952;2023-11-21T12:05:16;15.40;;;7.50;;
78614;SDS011;67937;52.488;20.952;2023-11-21T12:07:49;12.40;;;7.00;;
78614;SDS011;67937;52.488;20.952;2023-11-21T12:10:21;14.70;;;7.10;;
78614;SDS011;67937;52.488;20.952;2023-11-21T12:12:57;12.10;;;7.30;;
78614;SDS011;67937;52.488;20.952;2023-11-21T12:15:27;11.30;;;6.90;;
78614;SDS011;67937;52.488;20.952;2023-11-21T12:17:57;14.80;;;8.40;;
78614;SDS011;67937;52.488;20.952;2023-11-21T12:20:26;12.50;;;7.00;;
78614;SDS011;67937;52.488;20.952;2023-11-21T12:22:56;14.30;;;8.00;;
78614;SDS011;67937;52.488;20.952;2023-11-21T12:25:26;14.60;;;7.40;;
78614;SDS011;67937;52.488;20.952;2023-11-21T12:27:56;12.70;;;7.10;;
78614;SDS011;67937;52.488;20.952;2023-11-21T12:30:25;12.70;;;7.80;;
78614;SDS011;67937;52.488;20.952;2023-11-21T12:32:57;14.60;;;7.60;;
78614;SDS011;67937;52.488;20.952;2023-11-21T12:35:28;12.90;;;7.10;;
78614;SDS011;67937;52.488;20.952;2023-11-21T12:37:57;11.30;;;6.20;;
78614;SDS011;67937;52.488;20.952;2023-11-21T12:40:25;12.20;;;6.90;;
78614;SDS011;67937;52.488;20.952;2023-11-21T12:42:55;12.20;;;6.40;;
78614;SDS011;67937;52.488;20.952;2023-11-21T12:45:25;12.80;;;7.80;;
78614;SDS011;67937;52.488;20.952;2023-11-21T12:48:04;14.50;;;7.50;;
78614;SDS011;67937;52.488;20.952;2023-11-21T12:50:37;10.60;;;6.20;;
78614;SDS011;67937;52.488;20.952;2023-11-21T12:53:07;14.20;;;8.10;;
78614;SDS011;67937;52.488;20.952;2023-11-21T12:55:36;13.00;;;7.50;;
78614;SDS011;67937;52.488;20.952;2023-11-21T12:58:05;15.70;;;7.40;;
78614;SDS011;67937;52.488;20.952;2023-11-21T13:00:36;14.60;;;7.80;;
78614;SDS011;67937;52.488;20.952;2023-11-21T13:03:10;14.20;;;7.50;;
78614;SDS011;67937;52.488;20.952;2023-11-21T13:05:43;10.60;;;7.40;;
78614;SDS011;67937;52.488;20.952;2023-11-21T13:08:13;13.00;;;7.40;;
78614;SDS011;67937;52.488;20.952;2023-11-21T13:10:45;14.20;;;7.80;;
78614;SDS011;67937;52.488;20.952;2023-11-21T13:13:16;15.10;;;7.40;;
78614;SDS011;67937;52.488;20.952;2023-11-21T13:15:54;13.80;;;7.60;;
78614;SDS011;67937;52.488;20.952;2023-11-21T13:18:24;12.60;;;7.40;;
78614;SDS011;67937;52.488;20.952;2023-11-21T13:20:56;12.70;;;7.30;;
78614;SDS011;67937;52.488;20.952;2023-11-21T13:23:26;11.60;;;7.20;;
78614;SDS011;67937;52.488;20.952;2023-11-21T13:25:55;12.40;;;7.90;;
78614;SDS011;67937;52.488;20.952;2023-11-21T13:28:24;14.10;;;8.30;;
78614;SDS011;67937;52.488;20.952;2023-11-21T13:30:58;14.80;;;7.80;;
78614;SDS011;67937;52.488;20.952;2023-11-21T13:33:29;13.20;;;7.20;;
78614;SDS011;67937;52.488;20.952;2023-11-21T13:35:59;11.90;;;6.90;;
78614;SDS011;67937;52.488;20.952;2023-11-21T13:38:28;13.60;;;7.50;;
78614;SDS011;67937;52.488;20.952;2023-11-21T13:40:59;10.70;;;7.70;;
78614;SDS011;67937;52.488;20.952;2023-11-21T13:43:27;13.70;;;7.70;;
78614;SDS011;67937;52.488;20.952;2023-11-21T13:45:56;10.40;;;7.50;;
78614;SDS011;67937;52.488;20.952;2023-11-21T13:48:29;11.30;;;6.60;;
78614;SDS011;67937;52.488;20.952;2023-11-21T13:51:00;14.30;;;8.00;;
78614;SDS011;67937;52.488;20.952;2023-11-21T13:53:37;13.20;;;8.30;;
78614;SDS011;67937;52.488;20.952;2023-11-21T13:56:05;14.20;;;7.60;;
78614;SDS011;67937;52.488;20.952;2023-11-21T13:58:33;14.10;;;6.80;;
78614;SDS011;67937;52.488;20.952;2023-11-21T14:01:11;12.80;;;7.50;;
78614;SDS011;67937;52.488;20.952;2023-11-21T14:04:01;11.30;;;7.00;;
78614;SDS011;67937;52.488;20.952;2023-11-21T14:09:15;10.40;;;6.10;;
78614;SDS011;67937;52.488;20.952;2023-11-21T14:11:49;14.90;;;7.60;;
78614;SDS011;67937;52.488;20.952;2023-11-21T14:14:22;9.40;;;6.00;;
78614;SDS011;67937;52.488;20.952;2023-11-21T14:16:52;11.10;;;6.90;;
78614;SDS011;67937;52.488;20.952;2023-11-21T14:19:27;11.10;;;7.00;;
78614;SDS011;67937;52.488;20.952;2023-11-21T14:21:59;11.50;;;6.00;;
78614;SDS011;67937;52.488;20.952;2023-11-21T14:24:27;9.50;;;5.80;;
78614;SDS011;67937;52.488;20.952;2023-11-21T14:26:55;14.50;;;7.40;;
78614;SDS011;67937;52.488;20.952;2023-11-21T14:29:23;18.70;;;7.10;;
78614;SDS011;67937;52.488;20.952;2023-11-21T14:31:51;12.70;;;6.30;;
78614;SDS011;67937;52.488;20.952;2023-11-21T14:34:23;10.00;;;6.50;;
78614;SDS011;67937;52.488;20.952;2023-11-21T14:36:52;11.90;;;6.40;;
78614;SDS011;67937;52.488;20.952;2023-11-21T14:39:21;10.90;;;6.20;;
78614;SDS011;67937;52.488;20.952;2023-11-21T14:41:49;11.10;;;6.40;;
78614;SDS011;67937;52.488;20.952;2023-11-21T14:44:19;13.30;;;6.30;;
78614;SDS011;67937;52.488;20.952;2023-11-21T14:46:50;9.10;;;6.30;;
78614;SDS011;67937;52.488;20.952;2023-11-21T14:49:18;13.20;;;6.20;;
78614;SDS011;67937;52.488;20.952;2023-11-21T14:51:47;10.20;;;6.10;;